Time;durP1;ratioP1;P1;durP2;ratioP2;P2;SDS_P1;SDS_P2;PMS_P1;PMS_P2;Temp;Humidity;BMP_temperature;BMP_pressure;BME280_temperature;BME280_humidity;BME280_pressure;Samples;Min_cycle;Max_cycle;Signal;HPM_P1;HPM_P2
2022/05/25 00:01:00;;;;;;;8.38;5.20;;;9.90;99.90;;;;;;5052984;28;20076;-77
2022/05/25 00:03:27;;;;;;;8.73;5.30;;;9.90;99.90;;;;;;5084836;28;20048;-77
2022/05/25 00:05:54;;;;;;;9.00;5.63;;;10.20;99.90;;;;;;5059209;28;20032;-77
2022/05/25 00:08:19;;;;;;;12.38;5.63;;;9.90;99.90;;;;;;5065401;28;20435;-77
2022/05/25 00:10:45;;;;;;;8.40;5.00;;;9.90;99.90;;;;;;5082964;28;20094;-77
2022/05/25 00:13:11;;;;;;;11.25;6.00;;;9.90;99.90;;;;;;5054824;28;20373;-78
2022/05/25 00:15:36;;;;;;;9.77;6.22;;;9.90;99.90;;;;;;5057704;28;20420;-78
2022/05/25 00:18:02;;;;;;;9.48;5.95;;;9.90;99.90;;;;;;5060397;28;20049;-77
2022/05/25 00:20:28;;;;;;;9.68;5.75;;;9.80;99.90;;;;;;5061636;28;20045;-78
2022/05/25 00:22:56;;;;;;;10.02;6.03;;;9.80;99.90;;;;;;5060428;28;20377;-76
2022/05/25 00:25:30;;;;;;;7.60;5.47;;;9.80;99.90;;;;;;5057439;28;20044;-75
2022/05/25 00:28:06;;;;;;;10.43;5.88;;;9.80;99.90;;;;;;5062070;28;20966;-75
2022/05/25 00:30:31;;;;;;;8.30;5.65;;;9.80;99.90;;;;;;5059143;28;20036;-75
2022/05/25 00:32:59;;;;;;;8.90;5.78;;;9.70;99.90;;;;;;5059104;28;20986;-75
2022/05/25 00:35:27;;;;;;;11.30;6.55;;;9.70;99.90;;;;;;5061710;28;20036;-75
2022/05/25 00:37:53;;;;;;;8.30;6.13;;;9.70;99.90;;;;;;5061513;28;20041;-75
2022/05/25 00:40:29;;;;;;;9.32;5.57;;;9.70;99.90;;;;;;5063734;28;20041;-75
2022/05/25 00:42:54;;;;;;;9.90;6.20;;;9.70;99.90;;;;;;5062393;28;20041;-75
2022/05/25 00:45:20;;;;;;;7.82;5.47;;;9.70;99.90;;;;;;5059382;28;20567;-75
2022/05/25 00:47:49;;;;;;;14.23;6.55;;;9.70;99.90;;;;;;5056397;28;20387;-75
2022/05/25 00:50:16;;;;;;;9.75;5.93;;;9.70;99.90;;;;;;5061527;28;20052;-75
2022/05/25 00:52:46;;;;;;;11.07;6.68;;;9.70;99.90;;;;;;5059556;28;20392;-75
2022/05/25 00:55:15;;;;;;;9.98;6.90;;;9.60;99.90;;;;;;5063820;28;20511;-75
2022/05/25 00:57:44;;;;;;;11.48;6.70;;;9.60;99.90;;;;;;5093357;28;20484;-75
2022/05/25 01:00:12;;;;;;;9.43;6.95;;;9.60;99.90;;;;;;5061075;28;20070;-75
2022/05/25 01:02:44;;;;;;;10.55;6.80;;;9.60;99.90;;;;;;5061508;28;20037;-75
2022/05/25 01:05:15;;;;;;;9.98;6.95;;;9.60;99.90;;;;;;5059680;28;20052;-75
2022/05/25 01:08:05;;;;;;;9.55;6.90;;;9.50;99.90;;;;;;5060179;28;20512;-74
2022/05/25 01:11:05;;;;;;;10.20;6.88;;;9.60;99.90;;;;;;5088744;28;20055;-75
2022/05/25 01:14:09;;;;;;;11.00;6.45;;;9.50;99.90;;;;;;5089146;27;20044;-75
2022/05/25 01:16:48;;;;;;;10.77;6.60;;;9.50;99.90;;;;;;5063072;28;20051;-75
2022/05/25 01:19:35;;;;;;;9.10;6.85;;;9.50;99.90;;;;;;5083458;28;20049;-74
2022/05/25 01:22:16;;;;;;;14.38;8.10;;;9.50;99.90;;;;;;5086084;28;20044;-75
2022/05/25 01:25:30;;;;;;;12.45;7.72;;;9.50;99.90;;;;;;5051367;28;20048;-74
2022/05/25 01:28:07;;;;;;;10.65;7.15;;;9.50;99.90;;;;;;5053777;28;20048;-75
2022/05/25 01:30:39;;;;;;;11.65;8.65;;;9.40;99.90;;;;;;5065368;28;20067;-75
2022/05/25 01:33:34;;;;;;;10.85;8.18;;;9.40;99.90;;;;;;5063057;28;20594;-75
2022/05/25 01:36:05;;;;;;;12.73;8.40;;;9.40;99.90;;;;;;5054239;28;20548;-75
2022/05/25 01:38:38;;;;;;;12.90;8.82;;;9.40;99.90;;;;;;5058113;28;20040;-75
2022/05/25 01:41:40;;;;;;;12.68;8.48;;;9.40;99.90;;;;;;5061947;28;20105;-75
2022/05/25 01:44:13;;;;;;;12.02;8.35;;;9.40;99.90;;;;;;5046840;28;20060;-74
2022/05/25 01:46:46;;;;;;;10.70;8.10;;;9.40;99.90;;;;;;5065743;28;20500;-75
2022/05/25 01:49:16;;;;;;;12.23;8.90;;;9.40;99.90;;;;;;5064154;28;20300;-75
2022/05/25 01:51:56;;;;;;;11.55;8.50;;;9.40;99.90;;;;;;5055783;28;20086;-75
2022/05/25 01:54:25;;;;;;;13.60;8.43;;;9.40;99.90;;;;;;5053437;28;20049;-75
2022/05/25 01:56:55;;;;;;;12.32;8.35;;;9.40;99.90;;;;;;5051454;28;20140;-75
2022/05/25 01:59:21;;;;;;;13.75;9.00;;;9.40;99.90;;;;;;5049319;28;20044;-75
2022/05/25 02:04:45;;;;;;;13.15;9.35;;;9.40;99.90;;;;;;5019900;28;20071;-75
2022/05/25 02:07:35;;;;;;;12.27;9.40;;;9.30;99.90;;;;;;5056650;28;20041;-75
2022/05/25 02:10:41;;;;;;;13.48;10.00;;;9.30;99.90;;;;;;5061704;28;20522;-75
2022/05/25 02:13:26;;;;;;;14.00;8.77;;;9.30;99.90;;;;;;5058911;28;20053;-75
2022/05/25 02:16:16;;;;;;;14.80;10.40;;;9.30;99.90;;;;;;5061845;28;20080;-75
2022/05/25 02:19:05;;;;;;;12.57;9.35;;;9.30;99.90;;;;;;5055526;28;20480;-74
2022/05/25 02:21:40;;;;;;;12.45;9.77;;;9.20;99.90;;;;;;5053846;28;20480;-75
2022/05/25 02:24:43;;;;;;;14.85;10.35;;;9.20;99.90;;;;;;5056189;28;20037;-75
2022/05/25 02:27:11;;;;;;;14.05;9.40;;;9.20;99.90;;;;;;5021597;28;20567;-75
2022/05/25 02:29:42;;;;;;;15.40;9.77;;;9.20;99.90;;;;;;5065969;28;20127;-74
2022/05/25 02:32:17;;;;;;;15.02;10.73;;;9.20;99.90;;;;;;5064441;28;20040;-74
2022/05/25 02:34:47;;;;;;;17.65;10.65;;;9.20;99.90;;;;;;5064082;28;20399;-75
2022/05/25 02:37:13;;;;;;;13.13;9.60;;;9.10;99.90;;;;;;5069922;28;20041;-75
2022/05/25 02:39:39;;;;;;;15.40;10.93;;;9.10;99.90;;;;;;5064246;28;20048;-75
2022/05/25 02:42:15;;;;;;;15.68;10.05;;;9.10;99.90;;;;;;5065205;28;20048;-75
2022/05/25 02:44:42;;;;;;;14.82;10.73;;;9.10;99.90;;;;;;5059560;28;20439;-74
2022/05/25 02:47:08;;;;;;;15.95;10.38;;;9.10;99.90;;;;;;5056790;28;20063;-74
2022/05/25 02:49:35;;;;;;;18.08;11.05;;;9.10;99.90;;;;;;5066031;28;20119;-74
2022/05/25 02:52:00;;;;;;;15.57;10.55;;;9.10;99.90;;;;;;5054348;28;20072;-74
2022/05/25 02:54:26;;;;;;;13.27;9.63;;;9.10;99.90;;;;;;5059026;28;20076;-75
2022/05/25 02:56:51;;;;;;;15.68;10.55;;;9.10;99.90;;;;;;5056256;28;20048;-75
2022/05/25 02:59:17;;;;;;;14.55;11.18;;;9.10;99.90;;;;;;5067264;28;20492;-75
2022/05/25 03:01:43;;;;;;;17.67;11.18;;;9.00;99.90;;;;;;5069785;28;20131;-75
2022/05/25 03:04:08;;;;;;;17.15;9.98;;;9.00;99.90;;;;;;5058307;28;20508;-75
2022/05/25 03:06:34;;;;;;;14.32;10.50;;;9.00;99.90;;;;;;5059572;28;20047;-74
2022/05/25 03:08:59;;;;;;;17.40;11.20;;;9.00;99.90;;;;;;5056782;28;20080;-75
2022/05/25 03:11:25;;;;;;;16.08;10.48;;;9.00;99.90;;;;;;5063544;28;20045;-75
2022/05/25 03:13:51;;;;;;;15.02;10.90;;;9.00;99.90;;;;;;5064248;28;20921;-74
2022/05/25 03:16:19;;;;;;;14.18;9.85;;;9.00;99.90;;;;;;5066244;28;20502;-75
2022/05/25 03:18:45;;;;;;;15.52;10.85;;;9.10;99.90;;;;;;5063032;28;20048;-75
2022/05/25 03:21:11;;;;;;;17.05;11.50;;;9.00;99.90;;;;;;5059892;28;20049;-74
2022/05/25 03:23:37;;;;;;;17.45;11.38;;;9.00;99.90;;;;;;5057684;28;20044;-75
2022/05/25 03:26:03;;;;;;;15.40;11.27;;;9.10;99.90;;;;;;5062956;28;20106;-75
2022/05/25 03:28:29;;;;;;;18.33;12.02;;;9.00;99.90;;;;;;5058993;28;20480;-75
2022/05/25 03:30:55;;;;;;;16.40;10.57;;;9.00;99.90;;;;;;5066670;28;20510;-74
2022/05/25 03:33:20;;;;;;;16.70;11.70;;;9.00;99.90;;;;;;5056206;28;20041;-75
2022/05/25 03:35:46;;;;;;;19.73;12.75;;;9.00;99.90;;;;;;5062798;28;20051;-75
2022/05/25 03:38:12;;;;;;;16.70;10.75;;;9.00;99.90;;;;;;5057140;28;20049;-75
2022/05/25 03:40:39;;;;;;;14.45;11.00;;;9.00;99.90;;;;;;5063793;28;20055;-75
2022/05/25 03:43:14;;;;;;;15.90;11.15;;;9.00;99.90;;;;;;5060002;28;20052;-74
2022/05/25 03:45:40;;;;;;;17.02;11.65;;;9.00;99.90;;;;;;5058673;28;20084;-75
2022/05/25 03:48:07;;;;;;;19.95;12.35;;;9.00;99.90;;;;;;5061941;28;20076;-75
2022/05/25 03:50:39;;;;;;;16.70;11.88;;;9.00;99.90;;;;;;5062685;28;20437;-74
2022/05/25 03:53:12;;;;;;;19.38;11.68;;;9.00;99.90;;;;;;5085099;27;20106;-75
2022/05/25 03:55:38;;;;;;;17.17;11.75;;;9.00;99.90;;;;;;5059205;28;20060;-76
2022/05/25 03:58:04;;;;;;;17.42;11.50;;;9.00;99.90;;;;;;5066149;28;20119;-75
2022/05/25 04:00:30;;;;;;;17.77;12.85;;;9.00;99.90;;;;;;5067185;28;20452;-75
2022/05/25 04:02:59;;;;;;;14.70;10.43;;;9.00;99.90;;;;;;5065419;28;20131;-75
2022/05/25 04:05:26;;;;;;;16.42;11.90;;;9.00;99.90;;;;;;5061250;28;20127;-75
2022/05/25 04:07:51;;;;;;;19.92;11.93;;;9.00;99.90;;;;;;5056733;28;20492;-76
2022/05/25 04:10:19;;;;;;;17.67;12.10;;;9.00;99.90;;;;;;5058208;28;20048;-75
2022/05/25 04:12:46;;;;;;;21.27;12.27;;;9.10;99.90;;;;;;5061658;28;20053;-76
2022/05/25 04:15:18;;;;;;;17.70;12.00;;;9.10;99.90;;;;;;5063678;28;20084;-75
2022/05/25 04:17:44;;;;;;;21.02;12.15;;;9.10;99.90;;;;;;5056790;28;20041;-76
2022/05/25 04:20:11;;;;;;;17.88;11.82;;;9.10;99.90;;;;;;5063145;28;20109;-75
2022/05/25 04:22:37;;;;;;;22.67;12.18;;;9.10;99.90;;;;;;5056901;28;20040;-75
2022/05/25 04:25:05;;;;;;;19.35;12.60;;;9.10;99.90;;;;;;5048857;28;20408;-75
2022/05/25 04:27:31;;;;;;;19.33;13.07;;;9.20;99.90;;;;;;5060443;28;20533;-76
2022/05/25 04:29:56;;;;;;;17.50;12.27;;;9.20;99.90;;;;;;5061611;28;20080;-75
2022/05/25 04:32:22;;;;;;;20.55;12.90;;;9.20;99.90;;;;;;5062647;28;20067;-76
2022/05/25 04:34:48;;;;;;;20.17;12.77;;;9.20;99.90;;;;;;5064057;28;20061;-76
2022/05/25 04:39:57;;;;;;;17.05;11.55;;;9.30;99.90;;;;;;5062921;28;20347;-75
2022/05/25 04:42:28;;;;;;;20.25;11.68;;;9.30;99.90;;;;;;5062703;28;20091;-76
2022/05/25 04:45:00;;;;;;;17.27;11.90;;;9.30;99.90;;;;;;5056861;28;20052;-75
2022/05/25 04:47:30;;;;;;;16.55;12.07;;;9.30;99.90;;;;;;5071895;28;20463;-76
2022/05/25 04:49:57;;;;;;;17.77;12.30;;;9.40;99.90;;;;;;5060400;28;20062;-75
2022/05/25 04:52:23;;;;;;;21.02;11.63;;;9.40;99.90;;;;;;5096844;28;20040;-75
2022/05/25 04:54:48;;;;;;;16.63;12.02;;;9.40;99.90;;;;;;5064509;28;20049;-75
2022/05/25 04:57:20;;;;;;;17.13;11.15;;;9.50;99.90;;;;;;5064658;28;20084;-75
2022/05/25 04:59:50;;;;;;;16.23;11.07;;;9.50;99.90;;;;;;5059471;28;20049;-75
2022/05/25 05:02:16;;;;;;;17.05;11.35;;;9.50;99.90;;;;;;5061762;28;20119;-76
2022/05/25 05:04:42;;;;;;;17.85;11.88;;;9.50;99.90;;;;;;5062376;28;20120;-76
2022/05/25 05:07:08;;;;;;;18.17;11.38;;;9.60;99.90;;;;;;5056998;28;20045;-75
2022/05/25 05:09:35;;;;;;;18.25;11.52;;;9.60;99.90;;;;;;5058872;28;20033;-76
2022/05/25 05:12:02;;;;;;;17.33;10.77;;;9.70;99.90;;;;;;5057915;28;20399;-76
2022/05/25 05:14:30;;;;;;;16.98;12.27;;;9.70;99.90;;;;;;5057356;28;20094;-77
2022/05/25 05:17:01;;;;;;;18.52;11.77;;;9.80;99.90;;;;;;5052311;28;20472;-75
2022/05/25 05:19:27;;;;;;;17.73;11.27;;;9.80;99.90;;;;;;5058278;28;20040;-75
2022/05/25 05:21:55;;;;;;;19.05;10.93;;;9.90;99.90;;;;;;5060605;28;20076;-75
2022/05/25 05:24:32;;;;;;;16.38;11.20;;;9.90;99.90;;;;;;5055897;28;20040;-73
2022/05/25 05:26:57;;;;;;;18.70;12.18;;;10.00;99.90;;;;;;5058269;28;20428;-74
2022/05/25 05:29:24;;;;;;;20.52;12.43;;;10.10;99.90;;;;;;5062046;28;20048;-74
2022/05/25 05:31:51;;;;;;;19.30;11.88;;;10.10;99.90;;;;;;5087366;28;20052;-74
2022/05/25 05:34:17;;;;;;;18.70;11.82;;;10.10;99.90;;;;;;5056960;28;20044;-74
2022/05/25 05:36:50;;;;;;;20.73;11.93;;;10.20;99.90;;;;;;5065676;28;20049;-74
2022/05/25 05:39:18;;;;;;;16.08;11.90;;;10.30;99.90;;;;;;5055013;28;20044;-74
2022/05/25 05:41:59;;;;;;;14.63;11.40;;;10.40;99.90;;;;;;5059725;28;20040;-75
2022/05/25 05:44:30;;;;;;;15.85;10.63;;;10.50;99.90;;;;;;5059555;28;20060;-75
2022/05/25 05:46:58;;;;;;;16.73;10.80;;;10.60;99.90;;;;;;5055047;28;20365;-74
2022/05/25 05:49:23;;;;;;;17.85;11.80;;;10.60;99.90;;;;;;5051821;28;20565;-77
2022/05/25 05:51:49;;;;;;;16.35;11.05;;;10.70;99.90;;;;;;5053326;28;20048;-77
2022/05/25 05:54:16;;;;;;;18.10;11.02;;;10.70;99.90;;;;;;5059099;28;20048;-76
2022/05/25 05:56:52;;;;;;;18.90;11.70;;;10.80;99.90;;;;;;5062026;28;20052;-75
2022/05/25 05:59:17;;;;;;;18.23;11.88;;;10.80;99.90;;;;;;5060672;28;20044;-75
2022/05/25 06:01:45;;;;;;;18.58;11.57;;;10.90;99.90;;;;;;5064212;28;20052;-74
2022/05/25 06:04:11;;;;;;;16.58;11.45;;;11.00;99.90;;;;;;5059845;28;20048;-75
2022/05/25 06:06:37;;;;;;;16.85;11.88;;;11.00;99.90;;;;;;5058804;28;20056;-75
2022/05/25 06:09:03;;;;;;;21.98;11.27;;;11.10;99.90;;;;;;5056275;28;20045;-75
2022/05/25 06:11:32;;;;;;;18.35;11.90;;;11.10;99.90;;;;;;5062707;28;20382;-76
2022/05/25 06:14:01;;;;;;;16.83;10.98;;;11.20;99.90;;;;;;5057887;28;20064;-75
2022/05/25 06:19:26;;;;;;;18.02;11.63;;;11.30;99.90;;;;;;5063565;28;20044;-76
2022/05/25 06:22:05;;;;;;;16.88;11.63;;;11.40;99.90;;;;;;5069912;28;20068;-76
2022/05/25 06:24:38;;;;;;;17.08;11.90;;;11.50;99.90;;;;;;5059371;28;20037;-76
2022/05/25 06:27:08;;;;;;;20.98;11.85;;;11.50;99.90;;;;;;5069668;28;20113;-77
2022/05/25 06:29:37;;;;;;;16.38;10.95;;;11.60;99.90;;;;;;5062141;28;20047;-77
2022/05/25 06:32:07;;;;;;;16.88;10.10;;;11.70;99.90;;;;;;5071387;28;20407;-77
2022/05/25 06:34:37;;;;;;;17.90;11.20;;;11.80;99.90;;;;;;5068508;28;20048;-77
2022/05/25 06:37:03;;;;;;;20.42;11.30;;;11.80;99.90;;;;;;5063577;28;20400;-75
2022/05/25 06:39:37;;;;;;;16.38;10.43;;;11.90;99.90;;;;;;5053759;28;20611;-76
2022/05/25 06:42:04;;;;;;;14.95;10.30;;;12.00;99.90;;;;;;5057658;28;20041;-76
2022/05/25 06:44:29;;;;;;;17.73;11.10;;;12.00;99.90;;;;;;5057539;28;20047;-76
2022/05/25 06:46:55;;;;;;;16.40;10.15;;;12.10;99.90;;;;;;5063402;28;20029;-75
2022/05/25 06:49:21;;;;;;;15.10;9.70;;;12.20;99.90;;;;;;5064108;28;20571;-76
2022/05/25 06:51:46;;;;;;;14.95;9.80;;;12.30;99.90;;;;;;5060589;28;20127;-76
2022/05/25 06:54:17;;;;;;;15.18;9.00;;;12.40;99.90;;;;;;5068073;28;20044;-76
2022/05/25 06:56:42;;;;;;;13.63;8.05;;;12.40;99.90;;;;;;5066300;28;20064;-76
2022/05/25 06:59:08;;;;;;;16.70;10.10;;;12.50;99.90;;;;;;5065088;28;20052;-76
2022/05/25 07:01:36;;;;;;;12.13;8.52;;;12.60;99.90;;;;;;5065212;28;20055;-76
2022/05/25 07:04:02;;;;;;;12.93;8.48;;;12.70;99.90;;;;;;5065242;28;20052;-76
2022/05/25 07:06:30;;;;;;;14.27;7.80;;;12.80;99.90;;;;;;5065516;28;20411;-75
2022/05/25 07:08:56;;;;;;;12.85;8.50;;;13.00;99.90;;;;;;5065299;28;20131;-76
2022/05/25 07:11:26;;;;;;;13.63;7.47;;;13.10;99.90;;;;;;5070018;28;20529;-76
2022/05/25 07:13:52;;;;;;;11.38;7.28;;;13.30;99.90;;;;;;5065531;28;20388;-74
2022/05/25 07:16:20;;;;;;;13.15;7.30;;;13.60;99.90;;;;;;5062187;28;20040;-74
2022/05/25 07:18:46;;;;;;;12.10;7.68;;;13.90;99.90;;;;;;5062662;28;20044;-74
2022/05/25 07:21:18;;;;;;;11.95;7.50;;;14.30;99.90;;;;;;5071566;28;20419;-74
2022/05/25 07:23:46;;;;;;;11.40;5.88;;;14.60;99.90;;;;;;5064036;28;20052;-74
2022/05/25 07:26:12;;;;;;;13.45;6.55;;;14.90;99.90;;;;;;5065095;28;20052;-73
2022/05/25 07:28:38;;;;;;;11.52;6.22;;;15.20;99.90;;;;;;5065321;28;20033;-74
2022/05/25 07:31:24;;;;;;;11.25;6.05;;;15.40;99.90;;;;;;5065054;28;20076;-75
2022/05/25 07:34:04;;;;;;;9.55;5.85;;;15.70;99.90;;;;;;5063265;28;20044;-74
2022/05/25 07:36:31;;;;;;;10.25;5.32;;;15.90;99.90;;;;;;5062732;28;20052;-74
2022/05/25 07:39:01;;;;;;;10.23;5.75;;;16.00;99.90;;;;;;5060725;28;20124;-74
2022/05/25 07:41:27;;;;;;;10.85;6.03;;;16.20;99.90;;;;;;5088946;28;20120;-74
2022/05/25 07:43:57;;;;;;;11.75;5.28;;;16.30;99.90;;;;;;5060083;28;20040;-75
2022/05/25 07:46:24;;;;;;;8.88;6.30;;;16.40;99.90;;;;;;5062149;28;20056;-74
2022/05/25 07:48:50;;;;;;;9.63;5.78;;;16.50;99.90;;;;;;5063477;28;20040;-74
2022/05/25 07:51:16;;;;;;;10.00;5.63;;;16.60;99.90;;;;;;5065513;28;20111;-74
2022/05/25 07:53:57;;;;;;;12.75;6.00;;;16.60;99.90;;;;;;5071792;28;20051;-74
2022/05/25 07:56:32;;;;;;;10.40;5.53;;;16.60;99.90;;;;;;5064676;28;20052;-74
2022/05/25 07:58:59;;;;;;;9.10;4.95;;;16.60;99.90;;;;;;5072227;28;20084;-74
2022/05/25 08:06:59;;;;;;;6.45;4.10;;;16.80;99.90;;;;;;5068506;28;20053;-74
2022/05/25 08:09:25;;;;;;;8.35;4.13;;;16.80;99.90;;;;;;5070412;28;20032;-74
2022/05/25 08:11:51;;;;;;;9.75;4.05;;;16.80;99.90;;;;;;5069600;28;20048;-74
2022/05/25 08:14:17;;;;;;;6.25;3.25;;;16.80;99.90;;;;;;5072517;28;20117;-74
2022/05/25 08:16:42;;;;;;;6.10;3.80;;;16.90;99.90;;;;;;5069624;28;20044;-74
2022/05/25 08:19:08;;;;;;;5.93;3.35;;;17.10;99.90;;;;;;5068346;28;20036;-74
2022/05/25 08:21:33;;;;;;;6.95;3.72;;;17.20;99.90;;;;;;5062084;28;20076;-75
2022/05/25 08:23:59;;;;;;;6.75;3.45;;;17.30;99.90;;;;;;5050502;28;20484;-74
2022/05/25 08:26:24;;;;;;;6.03;3.00;;;17.30;99.90;;;;;;5059894;28;20049;-77
2022/05/25 08:28:56;;;;;;;5.68;2.53;;;17.30;99.90;;;;;;5052649;28;20116;-75
2022/05/25 08:31:22;;;;;;;8.27;3.10;;;17.20;99.90;;;;;;5088932;28;21581;-75
2022/05/25 08:33:47;;;;;;;5.05;2.20;;;17.20;99.90;;;;;;5057588;28;20072;-75
2022/05/25 08:36:13;;;;;;;6.65;2.58;;;17.10;99.90;;;;;;5051875;28;20147;-75
2022/05/25 08:38:38;;;;;;;7.80;3.00;;;17.10;99.90;;;;;;5058541;28;20045;-75
2022/05/25 08:41:04;;;;;;;6.43;2.35;;;17.20;99.90;;;;;;5056866;28;20053;-74
2022/05/25 08:43:36;;;;;;;7.13;2.40;;;17.30;99.90;;;;;;5063545;28;20041;-75
2022/05/25 08:46:04;;;;;;;5.10;2.63;;;17.40;99.90;;;;;;5058141;28;20052;-75
2022/05/25 08:48:31;;;;;;;6.15;2.63;;;17.50;99.90;;;;;;5061437;28;20045;-76
2022/05/25 08:51:09;;;;;;;6.68;2.55;;;17.50;99.90;;;;;;5056423;28;20103;-75
2022/05/25 08:53:35;;;;;;;5.05;2.30;;;17.60;99.90;;;;;;5054349;28;20041;-76
2022/05/25 08:56:13;;;;;;;6.00;2.40;;;17.70;99.90;;;;;;5059272;28;20096;-77
2022/05/25 08:59:12;;;;;;;9.80;3.35;;;17.80;99.90;;;;;;5093117;28;20045;-77
2022/05/25 09:01:45;;;;;;;3.83;2.42;;;17.80;99.90;;;;;;5062671;28;20060;-76
2022/05/25 09:04:34;;;;;;;6.22;2.70;;;17.70;99.90;;;;;;5055201;28;20141;-76
2022/05/25 09:07:11;;;;;;;5.47;2.83;;;17.70;99.90;;;;;;5060517;28;20052;-77
2022/05/25 09:09:40;;;;;;;7.43;3.63;;;17.80;99.90;;;;;;5063226;28;20152;-76
2022/05/25 09:12:29;;;;;;;7.20;3.28;;;17.70;99.90;;;;;;5062949;28;20049;-76
2022/05/25 09:15:04;;;;;;;4.70;3.20;;;17.60;99.90;;;;;;5060999;28;20094;-76
2022/05/25 09:17:41;;;;;;;7.20;2.63;;;17.70;99.90;;;;;;5055693;28;20044;-76
2022/05/25 09:20:12;;;;;;;5.30;2.30;;;17.70;99.90;;;;;;5054071;28;20049;-77
2022/05/25 09:22:38;;;;;;;7.60;3.10;;;17.70;99.90;;;;;;5059661;28;20500;-77
2022/05/25 09:25:05;;;;;;;15.13;4.40;;;17.70;99.90;;;;;;5061448;28;20048;-77
2022/05/25 09:27:38;;;;;;;9.93;4.00;;;17.80;99.90;;;;;;5067395;28;20037;-77
2022/05/25 09:30:06;;;;;;;7.80;3.50;;;17.80;99.90;;;;;;5069680;28;20067;-77
2022/05/25 09:32:42;;;;;;;6.55;2.72;;;17.80;99.90;;;;;;5068686;28;20111;-77
2022/05/25 09:35:20;;;;;;;5.38;2.67;;;17.80;99.90;;;;;;5068260;28;20047;-77
2022/05/25 09:37:54;;;;;;;6.57;2.88;;;17.70;99.90;;;;;;5068018;28;20044;-77
2022/05/25 09:40:21;;;;;;;6.88;2.20;;;17.70;99.90;;;;;;5071294;28;20051;-77
2022/05/25 09:42:58;;;;;;;6.20;2.67;;;17.80;99.90;;;;;;5068656;28;20036;-77
2022/05/25 09:45:39;;;;;;;5.50;2.50;;;17.90;99.90;;;;;;5071337;28;20361;-77
2022/05/25 09:48:19;;;;;;;4.85;2.75;;;17.80;99.90;;;;;;5056680;28;20510;-77
2022/05/25 09:50:49;;;;;;;8.60;2.70;;;17.80;99.90;;;;;;5065332;28;20048;-77
2022/05/25 09:53:17;;;;;;;5.93;2.40;;;17.80;99.90;;;;;;5068052;28;20596;-77
2022/05/25 09:55:52;;;;;;;4.50;2.03;;;17.90;99.90;;;;;;5074459;28;20057;-76
2022/05/25 09:58:38;;;;;;;4.30;2.20;;;18.10;99.90;;;;;;5067821;28;20119;-77
2022/05/25 10:01:15;;;;;;;5.25;2.50;;;18.20;99.90;;;;;;5064171;28;20048;-77
2022/05/25 10:03:43;;;;;;;5.18;2.60;;;18.30;99.90;;;;;;5069255;28;20059;-77
2022/05/25 10:06:25;;;;;;;4.70;2.03;;;18.30;99.90;;;;;;5064192;28;20040;-77
2022/05/25 10:09:15;;;;;;;5.38;2.80;;;18.30;99.90;;;;;;5065683;28;20563;-77
2022/05/25 10:11:55;;;;;;;4.60;1.98;;;18.30;99.90;;;;;;5069732;28;20090;-79
2022/05/25 10:14:40;;;;;;;3.63;1.65;;;18.20;99.90;;;;;;5071230;28;20049;-80
2022/05/25 10:17:09;;;;;;;4.53;2.42;;;18.20;99.90;;;;;;5089532;28;20101;-84
2022/05/25 10:19:51;;;;;;;6.07;2.50;;;18.30;99.90;;;;;;5067627;28;20047;-77
2022/05/25 10:22:36;;;;;;;4.45;2.25;;;18.40;99.90;;;;;;5068993;28;20415;-78
2022/05/25 10:25:12;;;;;;;6.05;2.35;;;18.50;99.90;;;;;;5084136;28;20079;-79
2022/05/25 10:27:41;;;;;;;4.63;1.90;;;18.60;99.90;;;;;;5069950;28;20044;-76
2022/05/25 10:39:29;;;;;;;4.70;2.13;;;18.10;99.90;;;;;;5061610;28;20127;-75
2022/05/25 10:41:58;;;;;;;6.88;2.58;;;17.90;99.90;;;;;;5074605;28;20051;-75
2022/05/25 10:44:26;;;;;;;4.03;1.92;;;17.70;99.90;;;;;;5073803;28;20515;-75
2022/05/25 10:46:59;;;;;;;5.22;2.30;;;17.80;99.90;;;;;;5065193;28;20722;-75
2022/05/25 10:49:38;;;;;;;3.73;1.90;;;17.90;99.90;;;;;;5068353;28;20044;-75
2022/05/25 10:52:19;;;;;;;4.40;1.85;;;18.10;99.90;;;;;;5069633;28;20067;-75
2022/05/25 10:54:45;;;;;;;5.10;1.70;;;18.30;99.90;;;;;;5075008;28;20076;-75
2022/05/25 10:57:37;;;;;;;4.13;2.08;;;18.50;99.90;;;;;;5068534;28;20087;-75
2022/05/25 11:00:19;;;;;;;5.80;1.73;;;18.50;99.90;;;;;;5069501;28;20087;-75
2022/05/25 11:03:19;;;;;;;4.53;1.95;;;18.70;99.90;;;;;;5077857;28;20084;-75
2022/05/25 11:06:15;;;;;;;4.60;1.65;;;18.80;99.90;;;;;;5064759;28;20057;-75
2022/05/25 11:08:56;;;;;;;4.45;1.65;;;18.90;99.90;;;;;;5072215;28;20127;-75
2022/05/25 11:11:36;;;;;;;7.28;1.83;;;18.70;99.90;;;;;;5064920;28;20041;-75
2022/05/25 11:14:29;;;;;;;7.22;1.98;;;18.60;99.90;;;;;;5071914;28;20395;-75
2022/05/25 11:17:09;;;;;;;5.85;2.50;;;18.50;99.90;;;;;;5069637;28;20056;-75
2022/05/25 11:20:01;;;;;;;4.97;2.17;;;18.40;99.90;;;;;;5060601;28;20052;-75
2022/05/25 11:22:39;;;;;;;4.78;1.88;;;18.50;99.80;;;;;;5065410;28;20480;-75
2022/05/25 11:25:13;;;;;;;5.07;1.58;;;18.70;99.90;;;;;;5059564;28;20416;-74
2022/05/25 11:28:07;;;;;;;8.50;1.90;;;18.80;99.90;;;;;;5072320;28;20123;-75
2022/05/25 11:30:39;;;;;;;5.35;2.17;;;18.80;98.90;;;;;;5065138;28;20086;-74
2022/05/25 11:33:29;;;;;;;6.03;2.00;;;18.70;99.50;;;;;;5073027;28;20099;-74
2022/05/25 11:35:57;;;;;;;8.98;2.88;;;18.70;98.90;;;;;;5071794;28;20499;-75
2022/05/25 11:38:33;;;;;;;6.75;3.17;;;18.90;99.90;;;;;;5063802;28;20072;-75
2022/05/25 11:41:01;;;;;;;7.88;3.10;;;19.10;99.90;;;;;;5072881;28;20105;-75
2022/05/25 11:43:41;;;;;;;8.18;4.07;;;19.30;99.90;;;;;;5069053;28;20029;-74
2022/05/25 11:46:22;;;;;;;7.90;3.60;;;19.30;99.50;;;;;;5073520;28;20430;-76
2022/05/25 11:49:23;;;;;;;6.88;3.53;;;19.30;99.40;;;;;;5071832;28;20047;-79
2022/05/25 11:52:23;;;;;;;8.38;4.47;;;19.20;98.10;;;;;;5070105;28;20445;-76
2022/05/25 11:54:58;;;;;;;7.03;4.40;;;19.00;99.40;;;;;;5067722;28;20044;-76
2022/05/25 11:57:42;;;;;;;7.28;5.07;;;18.80;99.90;;;;;;5069635;28;20076;-77
2022/05/25 12:00:18;;;;;;;14.45;5.50;;;18.50;99.90;;;;;;5077101;28;20132;-76
2022/05/25 12:03:20;;;;;;;8.60;4.40;;;18.10;99.90;;;;;;5068384;28;20503;-74
2022/05/25 12:06:16;;;;;;;8.45;3.65;;;17.50;99.90;;;;;;5072962;28;20092;-76
2022/05/25 12:09:00;;;;;;;5.25;2.50;;;17.00;99.90;;;;;;5063726;28;20040;-75
2022/05/25 12:12:07;;;;;;;6.80;2.58;;;16.70;99.90;;;;;;5069706;28;20124;-75
2022/05/25 12:14:41;;;;;;;5.13;2.40;;;16.40;99.90;;;;;;5013933;28;20044;-75
2022/05/25 12:17:11;;;;;;;;;;;16.40;99.90;;;;;;5073076;28;20048;-75
2022/05/25 12:19:40;;;;;;;3.88;2.33;;;16.40;99.90;;;;;;5065995;28;20015;-75
2022/05/25 12:22:11;;;;;;;3.53;2.20;;;16.50;99.90;;;;;;5067982;28;20392;-75
2022/05/25 12:24:46;;;;;;;7.72;2.80;;;16.50;99.90;;;;;;5066194;28;20874;-76
2022/05/25 12:27:17;;;;;;;7.57;3.08;;;16.70;99.90;;;;;;5073336;28;20127;-76
2022/05/25 12:29:50;;;;;;;4.78;2.92;;;16.90;99.90;;;;;;5071706;28;20045;-77
2022/05/25 12:32:16;;;;;;;4.65;2.60;;;17.00;99.90;;;;;;5071401;28;20048;-77
2022/05/25 12:34:47;;;;;;;8.40;2.78;;;17.10;99.90;;;;;;5072162;28;20059;-77
2022/05/25 12:37:19;;;;;;;7.13;3.03;;;17.30;99.90;;;;;;5066280;28;20040;-77
2022/05/25 12:39:45;;;;;;;5.40;3.20;;;17.40;99.90;;;;;;5066020;28;20045;-77
2022/05/25 12:42:23;;;;;;;5.70;3.78;;;17.50;99.90;;;;;;5072164;28;20063;-77
2022/05/25 12:50:48;;;;;;;5.57;2.10;;;17.90;99.90;;;;;;5069944;28;20041;-77
2022/05/25 12:53:37;;;;;;;6.85;2.47;;;18.00;99.90;;;;;;5074281;28;20047;-77
2022/05/25 12:56:30;;;;;;;5.60;2.13;;;18.20;99.90;;;;;;5074020;28;20067;-77
2022/05/25 12:59:29;;;;;;;5.57;2.20;;;18.40;99.90;;;;;;5067133;28;20044;-77
2022/05/25 13:02:21;;;;;;;4.70;2.20;;;18.60;99.90;;;;;;5066548;28;20084;-78
2022/05/25 13:04:54;;;;;;;3.70;1.50;;;18.70;99.90;;;;;;5087321;28;20780;-78
2022/05/25 13:07:37;;;;;;;6.03;2.08;;;18.80;99.90;;;;;;5104304;28;20059;-78
2022/05/25 13:10:21;;;;;;;5.90;1.80;;;18.80;99.90;;;;;;5055036;28;20052;-78
2022/05/25 13:12:51;;;;;;;5.93;1.48;;;18.80;99.90;;;;;;5069625;28;20052;-78
2022/05/25 13:15:17;;;;;;;3.35;1.00;;;18.90;99.90;;;;;;5062929;28;20578;-78
2022/05/25 13:17:53;;;;;;;4.50;1.20;;;19.10;99.90;;;;;;5067889;28;20051;-78
2022/05/25 13:20:46;;;;;;;4.18;0.90;;;19.20;99.90;;;;;;5100301;28;20067;-77
2022/05/25 13:23:50;;;;;;;5.95;1.10;;;19.20;99.10;;;;;;5057488;28;20045;-77
2022/05/25 13:26:36;;;;;;;3.47;0.90;;;19.20;98.90;;;;;;5064047;28;20392;-78
2022/05/25 13:29:14;;;;;;;3.92;0.80;;;19.20;99.50;;;;;;5068396;28;20048;-77
2022/05/25 13:31:50;;;;;;;25.13;2.55;;;19.20;98.20;;;;;;5071192;28;20090;-77
2022/05/25 13:34:18;;;;;;;3.63;0.80;;;19.10;97.40;;;;;;5070149;28;20052;-77
2022/05/25 13:36:58;;;;;;;5.22;0.90;;;19.10;98.30;;;;;;5064135;28;20071;-77
2022/05/25 13:39:26;;;;;;;6.30;1.13;;;19.00;98.20;;;;;;5069493;28;20043;-77
2022/05/25 13:41:54;;;;;;;6.47;0.85;;;19.00;97.10;;;;;;5069287;28;20487;-77